sensor_id;sensor_type;location;lat;lon;timestamp;temperature;humidity
57566;DHT22;63999;43.882;-0.310;2023-05-07T00:00:17;19.90;71.00
57566;DHT22;63999;43.882;-0.310;2023-05-07T00:02:45;19.90;71.00
57566;DHT22;63999;43.882;-0.310;2023-05-07T00:05:14;19.90;71.10
57566;DHT22;63999;43.882;-0.310;2023-05-07T00:07:40;19.90;71.20
57566;DHT22;63999;43.882;-0.310;2023-05-07T00:10:07;19.90;71.30
57566;DHT22;63999;43.882;-0.310;2023-05-07T00:12:33;19.90;71.20
57566;DHT22;63999;43.882;-0.310;2023-05-07T00:15:01;19.90;71.50
57566;DHT22;63999;43.882;-0.310;2023-05-07T00:17:30;19.90;71.30
57566;DHT22;63999;43.882;-0.310;2023-05-07T00:19:56;19.90;71.40
57566;DHT22;63999;43.882;-0.310;2023-05-07T00:22:22;19.90;71.40
57566;DHT22;63999;43.882;-0.310;2023-05-07T00:24:48;19.90;71.40
57566;DHT22;63999;43.882;-0.310;2023-05-07T00:27:13;19.80;71.40
57566;DHT22;63999;43.882;-0.310;2023-05-07T00:29:42;19.80;71.40
57566;DHT22;63999;43.882;-0.310;2023-05-07T00:32:08;19.70;71.70
57566;DHT22;63999;43.882;-0.310;2023-05-07T00:34:37;19.70;71.70
57566;DHT22;63999;43.882;-0.310;2023-05-07T00:37:05;19.70;71.80
57566;DHT22;63999;43.882;-0.310;2023-05-07T00:39:33;19.70;71.70
57566;DHT22;63999;43.882;-0.310;2023-05-07T00:41:59;19.70;71.80
57566;DHT22;63999;43.882;-0.310;2023-05-07T00:44:26;19.70;71.90
57566;DHT22;63999;43.882;-0.310;2023-05-07T00:46:53;19.70;71.90
57566;DHT22;63999;43.882;-0.310;2023-05-07T00:49:24;19.70;72.00
57566;DHT22;63999;43.882;-0.310;2023-05-07T00:51:52;19.60;72.10
57566;DHT22;63999;43.882;-0.310;2023-05-07T00:54:19;19.60;71.90
57566;DHT22;63999;43.882;-0.310;2023-05-07T00:56:46;19.60;72.00
57566;DHT22;63999;43.882;-0.310;2023-05-07T00:59:12;19.60;71.90
57566;DHT22;63999;43.882;-0.310;2023-05-07T01:01:38;19.50;72.00
57566;DHT22;63999;43.882;-0.310;2023-05-07T01:04:04;19.50;72.00
57566;DHT22;63999;43.882;-0.310;2023-05-07T01:06:33;19.50;72.00
57566;DHT22;63999;43.882;-0.310;2023-05-07T01:08:59;19.40;72.20
57566;DHT22;63999;43.882;-0.310;2023-05-07T01:11:27;19.40;72.20
57566;DHT22;63999;43.882;-0.310;2023-05-07T01:13:54;19.40;72.30
57566;DHT22;63999;43.882;-0.310;2023-05-07T01:16:26;19.40;72.20
57566;DHT22;63999;43.882;-0.310;2023-05-07T01:18:53;19.30;72.30
57566;DHT22;63999;43.882;-0.310;2023-05-07T01:21:25;19.30;72.40
57566;DHT22;63999;43.882;-0.310;2023-05-07T01:23:53;19.30;72.50
57566;DHT22;63999;43.882;-0.310;2023-05-07T01:26:20;19.30;72.40
57566;DHT22;63999;43.882;-0.310;2023-05-07T01:28:47;19.30;72.50
57566;DHT22;63999;43.882;-0.310;2023-05-07T01:31:20;19.20;72.60
57566;DHT22;63999;43.882;-0.310;2023-05-07T01:33:46;19.20;72.70
57566;DHT22;63999;43.882;-0.310;2023-05-07T01:36:18;19.20;72.70
57566;DHT22;63999;43.882;-0.310;2023-05-07T01:38:44;19.20;72.90
57566;DHT22;63999;43.882;-0.310;2023-05-07T01:41:15;19.20;72.80
57566;DHT22;63999;43.882;-0.310;2023-05-07T01:43:44;19.20;72.70
57566;DHT22;63999;43.882;-0.310;2023-05-07T01:46:11;19.20;72.70
57566;DHT22;63999;43.882;-0.310;2023-05-07T01:48:38;19.10;72.80
57566;DHT22;63999;43.882;-0.310;2023-05-07T01:51:04;19.10;72.90
57566;DHT22;63999;43.882;-0.310;2023-05-07T01:53:38;19.10;72.80
57566;DHT22;63999;43.882;-0.310;2023-05-07T01:56:08;19.10;72.80
57566;DHT22;63999;43.882;-0.310;2023-05-07T01:58:34;19.10;72.90
57566;DHT22;63999;43.882;-0.310;2023-05-07T02:01:00;19.10;73.00
57566;DHT22;63999;43.882;-0.310;2023-05-07T02:03:26;19.10;73.10
57566;DHT22;63999;43.882;-0.310;2023-05-07T02:05:52;19.00;73.10
57566;DHT22;63999;43.882;-0.310;2023-05-07T02:08:18;19.00;73.10
57566;DHT22;63999;43.882;-0.310;2023-05-07T02:10:47;19.00;73.10
57566;DHT22;63999;43.882;-0.310;2023-05-07T02:13:13;19.00;73.20
57566;DHT22;63999;43.882;-0.310;2023-05-07T02:15:39;19.00;73.10
57566;DHT22;63999;43.882;-0.310;2023-05-07T02:18:07;18.90;73.30
57566;DHT22;63999;43.882;-0.310;2023-05-07T02:20:33;18.90;73.40
57566;DHT22;63999;43.882;-0.310;2023-05-07T02:23:02;18.90;73.30
57566;DHT22;63999;43.882;-0.310;2023-05-07T02:25:28;18.90;73.20
57566;DHT22;63999;43.882;-0.310;2023-05-07T02:27:54;18.90;73.40
57566;DHT22;63999;43.882;-0.310;2023-05-07T02:30:20;18.90;73.40
57566;DHT22;63999;43.882;-0.310;2023-05-07T02:32:46;18.90;73.50
57566;DHT22;63999;43.882;-0.310;2023-05-07T02:35:12;18.90;73.40
57566;DHT22;63999;43.882;-0.310;2023-05-07T02:37:38;18.90;73.40
57566;DHT22;63999;43.882;-0.310;2023-05-07T02:40:05;18.90;73.50
57566;DHT22;63999;43.882;-0.310;2023-05-07T02:42:31;18.90;73.40
57566;DHT22;63999;43.882;-0.310;2023-05-07T02:44:57;18.90;73.50
57566;DHT22;63999;43.882;-0.310;2023-05-07T02:47:23;18.90;73.60
57566;DHT22;63999;43.882;-0.310;2023-05-07T02:49:49;18.90;73.60
57566;DHT22;63999;43.882;-0.310;2023-05-07T02:52:15;18.80;73.70
57566;DHT22;63999;43.882;-0.310;2023-05-07T02:54:41;18.80;73.70
57566;DHT22;63999;43.882;-0.310;2023-05-07T02:57:07;18.80;73.70
57566;DHT22;63999;43.882;-0.310;2023-05-07T02:59:35;18.80;73.60
57566;DHT22;63999;43.882;-0.310;2023-05-07T03:02:02;18.80;73.70
57566;DHT22;63999;43.882;-0.310;2023-05-07T03:04:31;18.80;73.80
57566;DHT22;63999;43.882;-0.310;2023-05-07T03:06:57;18.80;73.70
57566;DHT22;63999;43.882;-0.310;2023-05-07T03:09:23;18.80;73.70
57566;DHT22;63999;43.882;-0.310;2023-05-07T03:11:49;18.80;73.70
57566;DHT22;63999;43.882;-0.310;2023-05-07T03:14:18;18.80;73.80
57566;DHT22;63999;43.882;-0.310;2023-05-07T03:16:44;18.70;73.90
57566;DHT22;63999;43.882;-0.310;2023-05-07T03:19:10;18.70;74.00
57566;DHT22;63999;43.882;-0.310;2023-05-07T03:21:39;18.70;74.00
57566;DHT22;63999;43.882;-0.310;2023-05-07T03:24:05;18.70;74.00
57566;DHT22;63999;43.882;-0.310;2023-05-07T03:26:34;18.70;74.00
57566;DHT22;63999;43.882;-0.310;2023-05-07T03:29:00;18.70;74.00
57566;DHT22;63999;43.882;-0.310;2023-05-07T03:31:30;18.70;74.10
57566;DHT22;63999;43.882;-0.310;2023-05-07T03:33:57;18.70;74.20
57566;DHT22;63999;43.882;-0.310;2023-05-07T03:36:23;18.70;74.00
57566;DHT22;63999;43.882;-0.310;2023-05-07T03:38:50;18.70;74.00
57566;DHT22;63999;43.882;-0.310;2023-05-07T03:41:16;18.70;74.10
57566;DHT22;63999;43.882;-0.310;2023-05-07T03:43:42;18.70;74.20
57566;DHT22;63999;43.882;-0.310;2023-05-07T03:46:08;18.60;74.30
57566;DHT22;63999;43.882;-0.310;2023-05-07T03:48:34;18.60;74.20
57566;DHT22;63999;43.882;-0.310;2023-05-07T03:51:01;18.60;74.40
57566;DHT22;63999;43.882;-0.310;2023-05-07T03:53:27;18.50;74.40
57566;DHT22;63999;43.882;-0.310;2023-05-07T03:55:54;18.50;74.40
57566;DHT22;63999;43.882;-0.310;2023-05-07T03:58:22;18.50;74.40
57566;DHT22;63999;43.882;-0.310;2023-05-07T04:00:49;18.50;74.40
57566;DHT22;63999;43.882;-0.310;2023-05-07T04:03:16;18.50;74.40
57566;DHT22;63999;43.882;-0.310;2023-05-07T04:05:43;18.50;74.40
57566;DHT22;63999;43.882;-0.310;2023-05-07T04:08:09;18.50;74.60
57566;DHT22;63999;43.882;-0.310;2023-05-07T04:10:38;18.50;74.70
57566;DHT22;63999;43.882;-0.310;2023-05-07T04:13:09;18.50;74.60
57566;DHT22;63999;43.882;-0.310;2023-05-07T04:15:35;18.50;74.60
57566;DHT22;63999;43.882;-0.310;2023-05-07T04:18:04;18.50;74.50
57566;DHT22;63999;43.882;-0.310;2023-05-07T04:20:37;18.50;74.70
57566;DHT22;63999;43.882;-0.310;2023-05-07T04:23:03;18.40;74.70
57566;DHT22;63999;43.882;-0.310;2023-05-07T04:25:31;18.40;74.70
57566;DHT22;63999;43.882;-0.310;2023-05-07T04:28:00;18.40;74.70
57566;DHT22;63999;43.882;-0.310;2023-05-07T04:30:26;18.40;74.80
57566;DHT22;63999;43.882;-0.310;2023-05-07T04:32:52;18.50;74.80
57566;DHT22;63999;43.882;-0.310;2023-05-07T04:35:21;18.40;74.80
57566;DHT22;63999;43.882;-0.310;2023-05-07T04:37:47;18.40;74.80
57566;DHT22;63999;43.882;-0.310;2023-05-07T04:40:13;18.40;74.80
57566;DHT22;63999;43.882;-0.310;2023-05-07T04:42:39;18.50;74.60
57566;DHT22;63999;43.882;-0.310;2023-05-07T04:45:09;18.40;74.70
57566;DHT22;63999;43.882;-0.310;2023-05-07T04:47:36;18.40;74.70
57566;DHT22;63999;43.882;-0.310;2023-05-07T04:50:02;18.40;75.00
57566;DHT22;63999;43.882;-0.310;2023-05-07T04:52:28;18.40;74.80
57566;DHT22;63999;43.882;-0.310;2023-05-07T04:54:54;18.40;75.00
57566;DHT22;63999;43.882;-0.310;2023-05-07T04:57:20;18.40;75.00
57566;DHT22;63999;43.882;-0.310;2023-05-07T04:59:49;18.40;75.00
57566;DHT22;63999;43.882;-0.310;2023-05-07T05:02:15;18.40;75.00
57566;DHT22;63999;43.882;-0.310;2023-05-07T05:04:41;18.40;74.90
57566;DHT22;63999;43.882;-0.310;2023-05-07T05:07:07;18.50;74.90
57566;DHT22;63999;43.882;-0.310;2023-05-07T05:09:33;18.50;74.80
57566;DHT22;63999;43.882;-0.310;2023-05-07T05:12:02;18.40;74.90
57566;DHT22;63999;43.882;-0.310;2023-05-07T05:14:31;18.40;75.10
57566;DHT22;63999;43.882;-0.310;2023-05-07T05:16:57;18.40;75.20
57566;DHT22;63999;43.882;-0.310;2023-05-07T05:19:26;18.40;75.20
57566;DHT22;63999;43.882;-0.310;2023-05-07T05:21:52;18.40;75.20
57566;DHT22;63999;43.882;-0.310;2023-05-07T05:24:18;18.30;75.50
57566;DHT22;63999;43.882;-0.310;2023-05-07T05:26:46;18.30;75.50
57566;DHT22;63999;43.882;-0.310;2023-05-07T05:29:13;18.30;75.60
57566;DHT22;63999;43.882;-0.310;2023-05-07T05:31:42;18.30;75.70
57566;DHT22;63999;43.882;-0.310;2023-05-07T05:34:11;18.30;75.70
57566;DHT22;63999;43.882;-0.310;2023-05-07T05:36:37;18.20;75.80
57566;DHT22;63999;43.882;-0.310;2023-05-07T05:39:04;18.30;75.70
57566;DHT22;63999;43.882;-0.310;2023-05-07T05:41:30;18.30;75.70
57566;DHT22;63999;43.882;-0.310;2023-05-07T05:43:56;18.30;75.70
57566;DHT22;63999;43.882;-0.310;2023-05-07T05:46:22;18.30;75.70
57566;DHT22;63999;43.882;-0.310;2023-05-07T05:48:48;18.30;75.70
57566;DHT22;63999;43.882;-0.310;2023-05-07T05:51:14;18.30;75.60
57566;DHT22;63999;43.882;-0.310;2023-05-07T05:53:40;18.30;75.50
57566;DHT22;63999;43.882;-0.310;2023-05-07T05:56:07;18.40;75.70
57566;DHT22;63999;43.882;-0.310;2023-05-07T05:58:36;18.40;75.70
57566;DHT22;63999;43.882;-0.310;2023-05-07T06:01:02;18.40;75.70
57566;DHT22;63999;43.882;-0.310;2023-05-07T06:03:28;18.40;76.30
57566;DHT22;63999;43.882;-0.310;2023-05-07T06:05:54;18.50;75.50
57566;DHT22;63999;43.882;-0.310;2023-05-07T06:08:20;18.60;75.90
57566;DHT22;63999;43.882;-0.310;2023-05-07T06:10:46;18.60;75.40
57566;DHT22;63999;43.882;-0.310;2023-05-07T06:13:12;18.60;75.50
57566;DHT22;63999;43.882;-0.310;2023-05-07T06:15:38;18.60;75.40
57566;DHT22;63999;43.882;-0.310;2023-05-07T06:18:07;18.50;75.40
57566;DHT22;63999;43.882;-0.310;2023-05-07T06:20:33;18.50;75.50
57566;DHT22;63999;43.882;-0.310;2023-05-07T06:22:59;18.50;75.70
57566;DHT22;63999;43.882;-0.310;2023-05-07T06:25:26;18.40;75.80
57566;DHT22;63999;43.882;-0.310;2023-05-07T06:27:55;18.50;75.80
57566;DHT22;63999;43.882;-0.310;2023-05-07T06:30:35;18.50;75.80
57566;DHT22;63999;43.882;-0.310;2023-05-07T06:33:03;18.50;75.70
57566;DHT22;63999;43.882;-0.310;2023-05-07T06:35:34;18.50;75.80
57566;DHT22;63999;43.882;-0.310;2023-05-07T06:38:11;18.50;75.90
57566;DHT22;63999;43.882;-0.310;2023-05-07T06:40:52;18.50;75.80
57566;DHT22;63999;43.882;-0.310;2023-05-07T06:43:20;18.60;75.60
57566;DHT22;63999;43.882;-0.310;2023-05-07T06:45:46;18.50;75.70
57566;DHT22;63999;43.882;-0.310;2023-05-07T06:48:18;18.50;75.70
57566;DHT22;63999;43.882;-0.310;2023-05-07T06:50:47;18.50;75.70
57566;DHT22;63999;43.882;-0.310;2023-05-07T06:53:16;18.50;75.60
57566;DHT22;63999;43.882;-0.310;2023-05-07T06:55:51;18.50;75.80
57566;DHT22;63999;43.882;-0.310;2023-05-07T06:58:23;18.50;76.00
57566;DHT22;63999;43.882;-0.310;2023-05-07T07:00:49;18.50;75.90
57566;DHT22;63999;43.882;-0.310;2023-05-07T07:03:18;18.50;75.80
57566;DHT22;63999;43.882;-0.310;2023-05-07T07:05:45;18.50;76.20
57566;DHT22;63999;43.882;-0.310;2023-05-07T07:08:11;18.60;75.70
57566;DHT22;63999;43.882;-0.310;2023-05-07T07:10:37;18.60;76.10
57566;DHT22;63999;43.882;-0.310;2023-05-07T07:13:03;18.60;75.80
57566;DHT22;63999;43.882;-0.310;2023-05-07T07:15:29;18.60;75.50
57566;DHT22;63999;43.882;-0.310;2023-05-07T07:17:58;18.60;75.70
57566;DHT22;63999;43.882;-0.310;2023-05-07T07:20:27;18.60;75.50
57566;DHT22;63999;43.882;-0.310;2023-05-07T07:22:53;18.70;75.20
57566;DHT22;63999;43.882;-0.310;2023-05-07T07:25:22;18.70;75.50
57566;DHT22;63999;43.882;-0.310;2023-05-07T07:27:54;18.70;75.30
57566;DHT22;63999;43.882;-0.310;2023-05-07T07:30:23;18.70;75.50
57566;DHT22;63999;43.882;-0.310;2023-05-07T07:32:54;18.80;75.70
57566;DHT22;63999;43.882;-0.310;2023-05-07T07:35:28;18.80;75.50
57566;DHT22;63999;43.882;-0.310;2023-05-07T07:37:57;18.80;75.20
57566;DHT22;63999;43.882;-0.310;2023-05-07T07:40:28;18.80;75.10
57566;DHT22;63999;43.882;-0.310;2023-05-07T07:43:00;18.80;75.40
57566;DHT22;63999;43.882;-0.310;2023-05-07T07:45:32;18.90;74.50
57566;DHT22;63999;43.882;-0.310;2023-05-07T07:47:58;18.80;75.30
57566;DHT22;63999;43.882;-0.310;2023-05-07T07:50:27;18.90;75.10
57566;DHT22;63999;43.882;-0.310;2023-05-07T07:52:53;18.90;75.90
57566;DHT22;63999;43.882;-0.310;2023-05-07T07:55:20;18.90;75.70
57566;DHT22;63999;43.882;-0.310;2023-05-07T07:57:51;18.90;75.20
57566;DHT22;63999;43.882;-0.310;2023-05-07T08:00:17;19.00;75.60
57566;DHT22;63999;43.882;-0.310;2023-05-07T08:02:46;19.10;75.20
57566;DHT22;63999;43.882;-0.310;2023-05-07T08:05:12;19.20;75.40
57566;DHT22;63999;43.882;-0.310;2023-05-07T08:07:38;19.30;74.80
57566;DHT22;63999;43.882;-0.310;2023-05-07T08:10:07;19.30;75.30
57566;DHT22;63999;43.882;-0.310;2023-05-07T08:12:35;19.40;74.70
57566;DHT22;63999;43.882;-0.310;2023-05-07T08:15:03;19.30;73.50
57566;DHT22;63999;43.882;-0.310;2023-05-07T08:17:31;19.30;74.70
57566;DHT22;63999;43.882;-0.310;2023-05-07T08:19:57;19.50;74.60
57566;DHT22;63999;43.882;-0.310;2023-05-07T08:22:26;19.50;74.60
57566;DHT22;63999;43.882;-0.310;2023-05-07T08:24:52;19.50;73.40
57566;DHT22;63999;43.882;-0.310;2023-05-07T08:27:19;19.50;73.80
57566;DHT22;63999;43.882;-0.310;2023-05-07T08:29:44;19.50;74.30
57566;DHT22;63999;43.882;-0.310;2023-05-07T08:32:15;19.50;74.60
57566;DHT22;63999;43.882;-0.310;2023-05-07T08:34:41;19.50;74.30
57566;DHT22;63999;43.882;-0.310;2023-05-07T08:37:07;19.70;74.10
57566;DHT22;63999;43.882;-0.310;2023-05-07T08:39:33;19.60;74.10
57566;DHT22;63999;43.882;-0.310;2023-05-07T08:42:00;19.50;74.10
57566;DHT22;63999;43.882;-0.310;2023-05-07T08:44:33;19.70;73.70
57566;DHT22;63999;43.882;-0.310;2023-05-07T08:47:01;19.60;74.50
57566;DHT22;63999;43.882;-0.310;2023-05-07T08:49:30;19.70;74.30
57566;DHT22;63999;43.882;-0.310;2023-05-07T08:51:56;19.70;74.10
57566;DHT22;63999;43.882;-0.310;2023-05-07T08:54:22;19.70;74.20
57566;DHT22;63999;43.882;-0.310;2023-05-07T08:56:49;19.60;74.60
57566;DHT22;63999;43.882;-0.310;2023-05-07T08:59:15;19.50;74.00
57566;DHT22;63999;43.882;-0.310;2023-05-07T09:01:41;19.60;73.80
57566;DHT22;63999;43.882;-0.310;2023-05-07T09:04:07;19.50;74.20
57566;DHT22;63999;43.882;-0.310;2023-05-07T09:06:33;19.50;74.30
57566;DHT22;63999;43.882;-0.310;2023-05-07T09:09:03;19.40;74.30
57566;DHT22;63999;43.882;-0.310;2023-05-07T09:11:33;19.30;74.40
57566;DHT22;63999;43.882;-0.310;2023-05-07T09:13:59;19.40;74.80
57566;DHT22;63999;43.882;-0.310;2023-05-07T09:16:29;19.50;74.50
57566;DHT22;63999;43.882;-0.310;2023-05-07T09:18:58;19.50;74.00
57566;DHT22;63999;43.882;-0.310;2023-05-07T09:21:25;19.60;74.40
57566;DHT22;63999;43.882;-0.310;2023-05-07T09:23:55;19.50;74.00
57566;DHT22;63999;43.882;-0.310;2023-05-07T09:26:22;19.40;74.20
57566;DHT22;63999;43.882;-0.310;2023-05-07T09:28:48;19.50;74.10
57566;DHT22;63999;43.882;-0.310;2023-05-07T09:31:14;19.40;74.20
57566;DHT22;63999;43.882;-0.310;2023-05-07T09:33:40;19.50;74.50
57566;DHT22;63999;43.882;-0.310;2023-05-07T09:36:08;19.90;73.60
57566;DHT22;63999;43.882;-0.310;2023-05-07T09:38:36;19.90;73.20
57566;DHT22;63999;43.882;-0.310;2023-05-07T09:41:04;19.90;73.30
57566;DHT22;63999;43.882;-0.310;2023-05-07T09:43:37;19.70;73.60
57566;DHT22;63999;43.882;-0.310;2023-05-07T09:46:12;19.70;74.20
57566;DHT22;63999;43.882;-0.310;2023-05-07T09:48:58;19.90;72.90
57566;DHT22;63999;43.882;-0.310;2023-05-07T09:51:34;19.80;73.50
57566;DHT22;63999;43.882;-0.310;2023-05-07T09:54:04;19.90;73.10
57566;DHT22;63999;43.882;-0.310;2023-05-07T09:56:30;19.70;73.50
57566;DHT22;63999;43.882;-0.310;2023-05-07T09:58:59;19.60;73.80
57566;DHT22;63999;43.882;-0.310;2023-05-07T10:01:27;19.50;73.70
57566;DHT22;63999;43.882;-0.310;2023-05-07T10:03:53;19.50;74.20
57566;DHT22;63999;43.882;-0.310;2023-05-07T10:06:23;19.50;73.80
57566;DHT22;63999;43.882;-0.310;2023-05-07T10:08:51;19.60;73.90
57566;DHT22;63999;43.882;-0.310;2023-05-07T10:11:17;19.60;73.60
57566;DHT22;63999;43.882;-0.310;2023-05-07T10:13:44;19.70;74.00
57566;DHT22;63999;43.882;-0.310;2023-05-07T10:16:09;19.90;73.40
57566;DHT22;63999;43.882;-0.310;2023-05-07T10:18:37;20.00;73.20
57566;DHT22;63999;43.882;-0.310;2023-05-07T10:21:11;20.00;73.10
57566;DHT22;63999;43.882;-0.310;2023-05-07T10:23:38;20.00;72.70
57566;DHT22;63999;43.882;-0.310;2023-05-07T10:26:09;19.90;73.10
57566;DHT22;63999;43.882;-0.310;2023-05-07T10:28:39;19.90;73.00
57566;DHT22;63999;43.882;-0.310;2023-05-07T10:33:57;19.70;73.40
57566;DHT22;63999;43.882;-0.310;2023-05-07T10:36:27;19.70;73.50
57566;DHT22;63999;43.882;-0.310;2023-05-07T10:38:55;19.90;73.20
57566;DHT22;63999;43.882;-0.310;2023-05-07T10:41:21;19.90;73.50
57566;DHT22;63999;43.882;-0.310;2023-05-07T10:43:47;19.70;73.60
57566;DHT22;63999;43.882;-0.310;2023-05-07T10:46:23;19.70;73.60
57566;DHT22;63999;43.882;-0.310;2023-05-07T10:51:34;19.60;73.20
57566;DHT22;63999;43.882;-0.310;2023-05-07T10:56:39;19.50;74.10
57566;DHT22;63999;43.882;-0.310;2023-05-07T11:01:56;19.60;74.00
57566;DHT22;63999;43.882;-0.310;2023-05-07T11:04:27;19.70;73.50
57566;DHT22;63999;43.882;-0.310;2023-05-07T11:15:10;19.60;73.60
57566;DHT22;63999;43.882;-0.310;2023-05-07T11:18:12;19.60;73.70
57566;DHT22;63999;43.882;-0.310;2023-05-07T11:26:06;19.70;73.60
57566;DHT22;63999;43.882;-0.310;2023-05-07T11:28:42;19.70;73.10
57566;DHT22;63999;43.882;-0.310;2023-05-07T11:31:09;19.50;73.90
57566;DHT22;63999;43.882;-0.310;2023-05-07T11:33:37;19.60;73.30
57566;DHT22;63999;43.882;-0.310;2023-05-07T11:36:04;19.50;73.60
57566;DHT22;63999;43.882;-0.310;2023-05-07T11:38:35;19.70;75.00
57566;DHT22;63999;43.882;-0.310;2023-05-07T11:41:05;19.90;73.40
57566;DHT22;63999;43.882;-0.310;2023-05-07T11:43:36;19.90;73.10
57566;DHT22;63999;43.882;-0.310;2023-05-07T11:46:14;19.70;73.10
57566;DHT22;63999;43.882;-0.310;2023-05-07T11:48:40;19.50;74.00
57566;DHT22;63999;43.882;-0.310;2023-05-07T11:51:07;19.60;74.40
57566;DHT22;63999;43.882;-0.310;2023-05-07T11:53:39;19.90;73.90
57566;DHT22;63999;43.882;-0.310;2023-05-07T11:56:16;20.10;73.60
57566;DHT22;63999;43.882;-0.310;2023-05-07T11:58:46;20.20;72.10
57566;DHT22;63999;43.882;-0.310;2023-05-07T12:01:14;20.10;72.70
57566;DHT22;63999;43.882;-0.310;2023-05-07T12:03:49;20.30;72.90
57566;DHT22;63999;43.882;-0.310;2023-05-07T12:06:20;20.30;72.40
57566;DHT22;63999;43.882;-0.310;2023-05-07T12:08:46;20.10;73.60
57566;DHT22;63999;43.882;-0.310;2023-05-07T12:11:28;20.00;72.60
57566;DHT22;63999;43.882;-0.310;2023-05-07T12:13:57;19.90;73.10
57566;DHT22;63999;43.882;-0.310;2023-05-07T12:16:26;19.90;74.60
57566;DHT22;63999;43.882;-0.310;2023-05-07T12:18:53;19.90;73.60
57566;DHT22;63999;43.882;-0.310;2023-05-07T12:21:20;19.90;73.40
57566;DHT22;63999;43.882;-0.310;2023-05-07T12:23:46;19.90;73.90
57566;DHT22;63999;43.882;-0.310;2023-05-07T12:26:16;20.00;73.80
57566;DHT22;63999;43.882;-0.310;2023-05-07T12:28:42;20.00;74.10
57566;DHT22;63999;43.882;-0.310;2023-05-07T12:31:08;20.00;74.10
57566;DHT22;63999;43.882;-0.310;2023-05-07T12:33:35;20.00;73.40
57566;DHT22;63999;43.882;-0.310;2023-05-07T12:36:05;20.10;73.00
57566;DHT22;63999;43.882;-0.310;2023-05-07T12:38:41;20.00;73.80
57566;DHT22;63999;43.882;-0.310;2023-05-07T12:41:16;20.00;73.80
57566;DHT22;63999;43.882;-0.310;2023-05-07T12:43:46;19.90;73.20
57566;DHT22;63999;43.882;-0.310;2023-05-07T12:46:18;20.00;73.40
57566;DHT22;63999;43.882;-0.310;2023-05-07T12:48:46;20.10;73.90
57566;DHT22;63999;43.882;-0.310;2023-05-07T12:51:11;20.30;72.90
57566;DHT22;63999;43.882;-0.310;2023-05-07T12:53:42;20.30;72.70
57566;DHT22;63999;43.882;-0.310;2023-05-07T12:56:08;20.10;72.90
57566;DHT22;63999;43.882;-0.310;2023-05-07T12:58:35;19.90;73.50
57566;DHT22;63999;43.882;-0.310;2023-05-07T13:01:07;20.00;73.50
57566;DHT22;63999;43.882;-0.310;2023-05-07T13:03:48;20.10;74.00
57566;DHT22;63999;43.882;-0.310;2023-05-07T13:06:15;20.10;73.40
57566;DHT22;63999;43.882;-0.310;2023-05-07T13:08:46;19.90;72.70
57566;DHT22;63999;43.882;-0.310;2023-05-07T13:11:15;19.80;73.70
57566;DHT22;63999;43.882;-0.310;2023-05-07T13:13:47;19.70;73.60
57566;DHT22;63999;43.882;-0.310;2023-05-07T13:16:12;20.00;74.40
57566;DHT22;63999;43.882;-0.310;2023-05-07T13:18:48;20.00;73.70
57566;DHT22;63999;43.882;-0.310;2023-05-07T13:21:14;20.00;73.60
57566;DHT22;63999;43.882;-0.310;2023-05-07T13:23:40;20.00;74.00
57566;DHT22;63999;43.882;-0.310;2023-05-07T13:26:06;20.10;73.00
57566;DHT22;63999;43.882;-0.310;2023-05-07T13:28:35;20.10;72.60
57566;DHT22;63999;43.882;-0.310;2023-05-07T13:31:03;20.00;72.60
57566;DHT22;63999;43.882;-0.310;2023-05-07T13:33:29;20.00;73.00
57566;DHT22;63999;43.882;-0.310;2023-05-07T13:36:01;20.00;74.00
57566;DHT22;63999;43.882;-0.310;2023-05-07T13:38:29;20.10;73.10
57566;DHT22;63999;43.882;-0.310;2023-05-07T13:40:58;20.20;73.30
57566;DHT22;63999;43.882;-0.310;2023-05-07T13:43:29;20.30;72.90
57566;DHT22;63999;43.882;-0.310;2023-05-07T13:46:00;20.30;72.50
57566;DHT22;63999;43.882;-0.310;2023-05-07T13:48:30;20.40;72.80
57566;DHT22;63999;43.882;-0.310;2023-05-07T13:50:56;20.50;71.60
57566;DHT22;63999;43.882;-0.310;2023-05-07T13:53:21;20.50;71.50
57566;DHT22;63999;43.882;-0.310;2023-05-07T13:55:50;20.70;71.10
57566;DHT22;63999;43.882;-0.310;2023-05-07T13:58:16;20.70;69.90
57566;DHT22;63999;43.882;-0.310;2023-05-07T14:00:42;20.60;71.00
57566;DHT22;63999;43.882;-0.310;2023-05-07T14:03:08;20.60;71.70
57566;DHT22;63999;43.882;-0.310;2023-05-07T14:05:33;20.80;71.20
57566;DHT22;63999;43.882;-0.310;2023-05-07T14:08:00;20.80;71.40
57566;DHT22;63999;43.882;-0.310;2023-05-07T14:10:26;20.70;71.10
57566;DHT22;63999;43.882;-0.310;2023-05-07T14:12:52;20.50;71.60
57566;DHT22;63999;43.882;-0.310;2023-05-07T14:15:18;20.50;71.90
57566;DHT22;63999;43.882;-0.310;2023-05-07T14:17:44;20.60;71.10
57566;DHT22;63999;43.882;-0.310;2023-05-07T14:20:11;20.60;71.60
57566;DHT22;63999;43.882;-0.310;2023-05-07T14:22:37;20.50;71.70
57566;DHT22;63999;43.882;-0.310;2023-05-07T14:25:03;20.50;71.40
57566;DHT22;63999;43.882;-0.310;2023-05-07T14:27:29;20.70;69.70
57566;DHT22;63999;43.882;-0.310;2023-05-07T14:29:57;20.80;69.80
57566;DHT22;63999;43.882;-0.310;2023-05-07T14:32:23;20.90;70.90
57566;DHT22;63999;43.882;-0.310;2023-05-07T14:34:49;20.60;70.80
57566;DHT22;63999;43.882;-0.310;2023-05-07T14:37:18;20.60;70.80
57566;DHT22;63999;43.882;-0.310;2023-05-07T14:39:45;20.60;70.00
57566;DHT22;63999;43.882;-0.310;2023-05-07T14:42:12;20.50;71.30
57566;DHT22;63999;43.882;-0.310;2023-05-07T14:44:43;20.70;70.20
57566;DHT22;63999;43.882;-0.310;2023-05-07T14:47:10;20.80;70.60
57566;DHT22;63999;43.882;-0.310;2023-05-07T14:49:36;20.60;70.70
57566;DHT22;63999;43.882;-0.310;2023-05-07T14:52:09;20.60;70.10
57566;DHT22;63999;43.882;-0.310;2023-05-07T14:54:39;20.60;71.50
57566;DHT22;63999;43.882;-0.310;2023-05-07T14:57:06;20.70;70.60
57566;DHT22;63999;43.882;-0.310;2023-05-07T14:59:32;20.60;70.00
57566;DHT22;63999;43.882;-0.310;2023-05-07T15:02:00;20.80;70.00
57566;DHT22;63999;43.882;-0.310;2023-05-07T15:04:28;20.80;70.80
57566;DHT22;63999;43.882;-0.310;2023-05-07T15:06:54;20.90;69.90
57566;DHT22;63999;43.882;-0.310;2023-05-07T15:09:25;20.90;70.00
57566;DHT22;63999;43.882;-0.310;2023-05-07T15:11:52;20.90;70.30
57566;DHT22;63999;43.882;-0.310;2023-05-07T15:14:18;21.00;70.10
57566;DHT22;63999;43.882;-0.310;2023-05-07T15:16:48;20.90;69.90
57566;DHT22;63999;43.882;-0.310;2023-05-07T15:19:17;20.90;69.90
57566;DHT22;63999;43.882;-0.310;2023-05-07T15:21:43;20.80;70.30
57566;DHT22;63999;43.882;-0.310;2023-05-07T15:24:09;20.80;70.70
57566;DHT22;63999;43.882;-0.310;2023-05-07T15:26:36;20.90;70.10
57566;DHT22;63999;43.882;-0.310;2023-05-07T15:29:02;20.90;70.30
57566;DHT22;63999;43.882;-0.310;2023-05-07T15:31:33;21.10;70.20
57566;DHT22;63999;43.882;-0.310;2023-05-07T15:34:00;20.90;70.20
57566;DHT22;63999;43.882;-0.310;2023-05-07T15:36:29;20.90;69.70
57566;DHT22;63999;43.882;-0.310;2023-05-07T15:38:57;20.90;71.80
57566;DHT22;63999;43.882;-0.310;2023-05-07T15:41:24;20.80;70.90
57566;DHT22;63999;43.882;-0.310;2023-05-07T15:43:52;20.80;70.60